createdAt,value
2022-08-05T00:00:19.132Z,40.68
2022-08-05T00:02:50.707Z,40.80
2022-08-05T00:06:01.923Z,40.93
2022-08-05T00:08:35.163Z,41.12
2022-08-05T00:11:00.972Z,40.85
2022-08-05T00:13:39.445Z,40.91
2022-08-05T00:16:12.682Z,40.95
2022-08-05T00:18:42.856Z,40.76
2022-08-05T00:21:14.561Z,41.03
2022-08-05T00:23:46.741Z,41.23
2022-08-05T00:26:22.547Z,41.27
2022-08-05T00:28:51.790Z,41.51
2022-08-05T00:31:54.456Z,41.79
2022-08-05T00:34:54.152Z,41.74
2022-08-05T00:37:11.094Z,42.12
2022-08-05T00:39:58.574Z,42.07
2022-08-05T00:42:32.490Z,42.33
2022-08-05T00:45:01.401Z,42.51
2022-08-05T00:47:56.728Z,43.03
2022-08-05T00:50:21.308Z,43.12
2022-08-05T00:52:55.103Z,43.20
2022-08-05T00:55:42.344Z,43.09
2022-08-05T00:58:12.455Z,43.17
2022-08-05T01:00:42.515Z,43.05
2022-08-05T01:03:12.669Z,43.07
2022-08-05T01:05:51.682Z,42.85
2022-08-05T01:08:41.929Z,43.35
2022-08-05T01:11:21.942Z,43.53
2022-08-05T01:13:59.867Z,43.49
2022-08-05T01:16:30.799Z,43.60
2022-08-05T01:19:02.470Z,43.47
2022-08-05T01:21:39.492Z,43.47
2022-08-05T01:24:13.423Z,43.68
2022-08-05T01:26:50.037Z,43.69
2022-08-05T01:29:22.957Z,43.53
2022-08-05T01:31:54.122Z,43.57
2022-08-05T01:34:26.743Z,43.52
2022-08-05T01:37:00.539Z,43.39
2022-08-05T01:39:47.247Z,43.93
2022-08-05T01:42:18.632Z,43.92
2022-08-05T01:44:53.858Z,43.63
2022-08-05T01:47:25.025Z,43.82
2022-08-05T01:50:15.052Z,43.95
2022-08-05T01:52:45.557Z,43.79
2022-08-05T01:55:20.874Z,43.86
2022-08-05T01:58:10.467Z,43.94
2022-08-05T02:00:43.797Z,44.10
2022-08-05T02:03:24.066Z,44.16
2022-08-05T02:05:59.908Z,43.91
2022-08-05T02:08:32.349Z,43.53
2022-08-05T02:11:04.757Z,43.95
2022-08-05T02:13:57.950Z,44.01
2022-08-05T02:16:29.315Z,44.05
2022-08-05T02:19:00.337Z,43.48
2022-08-05T02:21:32.085Z,43.72
2022-08-05T02:24:17.828Z,43.54
2022-08-05T02:26:53.735Z,43.99
2022-08-05T02:29:26.210Z,44.05
2022-08-05T02:32:23.971Z,43.77
2022-08-05T02:34:59.215Z,44.43
2022-08-05T02:37:38.417Z,44.47
2022-08-05T02:40:09.525Z,44.12
2022-08-05T02:42:40.753Z,44.20
2022-08-05T02:45:10.771Z,44.25
2022-08-05T02:48:07.684Z,44.06
2022-08-05T02:50:30.874Z,43.97
2022-08-05T02:52:59.715Z,44.18
2022-08-05T02:55:53.802Z,44.23
2022-08-05T02:58:18.052Z,44.22
2022-08-05T03:00:49.771Z,44.62
2022-08-05T03:03:23.386Z,44.47
2022-08-05T03:06:55.095Z,44.03
2022-08-05T03:08:43.421Z,44.37
2022-08-05T03:11:55.095Z,44.05
2022-08-05T03:14:13.330Z,44.50
2022-08-05T03:16:42.263Z,44.41
2022-08-05T03:19:16.895Z,44.38
2022-08-05T03:21:48.939Z,44.47
2022-08-05T03:24:23.655Z,44.66
2022-08-05T03:26:59.577Z,44.37
2022-08-05T03:29:44.447Z,44.79
2022-08-05T03:32:15.619Z,44.76
2022-08-05T03:34:50.495Z,44.15
2022-08-05T03:37:20.915Z,44.52
2022-08-05T03:40:01.680Z,44.04
2022-08-05T03:42:41.589Z,44.63
2022-08-05T03:45:22.057Z,44.89
2022-08-05T03:47:51.666Z,44.52
2022-08-05T03:50:27.474Z,44.79
2022-08-05T03:55:06.867Z,44.33
2022-08-05T03:56:11.437Z,44.11
2022-08-05T03:58:47.497Z,44.46
2022-08-05T04:01:21.328Z,45.20
2022-08-05T04:04:10.132Z,44.84
2022-08-05T04:06:47.334Z,44.56
2022-08-05T04:09:20.191Z,43.93
2022-08-05T04:11:52.341Z,43.33
2022-08-05T04:14:30.421Z,43.98
2022-08-05T04:17:00.949Z,43.68
2022-08-05T04:19:31.956Z,43.82
2022-08-05T04:22:09.917Z,43.25
2022-08-05T04:24:44.127Z,43.33
2022-08-05T04:27:14.084Z,42.85
2022-08-05T04:29:44.159Z,43.32
2022-08-05T04:32:14.220Z,42.72
2022-08-05T04:34:49.139Z,42.74
2022-08-05T04:38:00.724Z,42.57
2022-08-05T04:40:19.610Z,42.58
2022-08-05T04:42:48.462Z,42.01
2022-08-05T04:45:23.019Z,41.39
2022-08-05T04:48:06.884Z,41.40
2022-08-05T04:51:02.537Z,41.33
2022-08-05T04:53:33.387Z,40.41
2022-08-05T04:56:32.203Z,40.48
2022-08-05T04:58:54.574Z,41.28
2022-08-05T05:02:05.491Z,40.68
2022-08-05T05:04:12.765Z,41.48
2022-08-05T05:06:49.305Z,40.98
2022-08-05T05:09:29.040Z,40.54
2022-08-05T05:12:02.889Z,40.88
2022-08-05T05:14:32.375Z,40.86
2022-08-05T05:17:01.614Z,40.31
2022-08-05T05:19:36.568Z,40.26
2022-08-05T05:22:23.613Z,40.03
2022-08-05T05:24:59.511Z,40.59
2022-08-05T05:27:44.524Z,39.78
2022-08-05T05:30:29.522Z,39.29
2022-08-05T05:33:09.134Z,38.82
2022-08-05T05:35:46.159Z,38.26
2022-08-05T05:38:15.113Z,37.84
2022-08-05T05:40:54.104Z,37.27
2022-08-05T05:43:57.267Z,37.03
2022-08-05T05:46:17.664Z,37.63
2022-08-05T05:48:48.975Z,37.45
2022-08-05T05:51:22.619Z,36.74
2022-08-05T05:53:58.511Z,37.02
2022-08-05T05:56:32.406Z,36.29
2022-08-05T05:59:05.345Z,36.72
2022-08-05T06:01:38.164Z,36.43
2022-08-05T06:04:11.761Z,36.32
2022-08-05T06:06:43.112Z,35.63
2022-08-05T06:09:17.513Z,36.05
2022-08-05T06:12:01.424Z,36.22
2022-08-05T06:14:31.764Z,36.71
2022-08-05T06:17:21.946Z,36.30
2022-08-05T06:19:57.052Z,36.00
2022-08-05T06:22:29.322Z,36.07
2022-08-05T06:24:58.765Z,36.35
2022-08-05T06:28:12.551Z,35.89
2022-08-05T06:30:19.987Z,35.90
2022-08-05T06:32:50.718Z,35.66
2022-08-05T06:36:04.052Z,35.10
2022-08-05T06:38:11.672Z,35.17
2022-08-05T06:40:44.302Z,35.17
2022-08-05T06:43:59.723Z,34.23
2022-08-05T06:46:07.171Z,33.91
2022-08-05T06:48:53.113Z,33.94
2022-08-05T06:51:29.892Z,34.03
2022-08-05T06:54:00.181Z,33.12
2022-08-05T06:56:34.120Z,31.59
2022-08-05T06:59:09.698Z,30.08
2022-08-05T07:01:42.340Z,29.40
2022-08-05T07:04:14.028Z,28.83
2022-08-05T07:06:42.759Z,27.95
2022-08-05T07:09:11.354Z,27.80
2022-08-05T07:11:45.508Z,27.72
2022-08-05T07:14:37.925Z,27.94
2022-08-05T07:17:58.981Z,27.61
2022-08-05T07:22:49.163Z,28.27
2022-08-05T07:25:23.515Z,27.14
2022-08-05T07:28:11.971Z,27.38
2022-08-05T07:30:52.978Z,27.75
2022-08-05T07:33:37.074Z,27.42
2022-08-05T07:36:19.862Z,26.23
2022-08-05T07:38:49.762Z,26.39
2022-08-05T07:42:08.166Z,25.44
2022-08-05T07:44:18.693Z,24.88
2022-08-05T07:46:50.559Z,24.94
2022-08-05T07:49:19.795Z,24.49
2022-08-05T07:51:54.255Z,24.71
2022-08-05T07:54:30.789Z,23.70
2022-08-05T07:57:41.972Z,23.88
2022-08-05T07:59:53.513Z,24.19
2022-08-05T08:02:30.891Z,23.07
2022-08-05T08:05:17.565Z,23.29
2022-08-05T08:08:00.274Z,22.34
2022-08-05T08:10:30.241Z,22.17
2022-08-05T08:12:59.544Z,22.06
2022-08-05T08:16:33.913Z,21.69
2022-08-05T08:18:20.753Z,21.75
2022-08-05T08:21:03.154Z,21.70
2022-08-05T08:24:02.126Z,21.75
2022-08-05T10:13:09.648Z,17.03
2022-08-05T10:15:41.498Z,16.76
2022-08-05T10:18:14.444Z,17.79
2022-08-05T10:20:49.025Z,20.28
2022-08-05T10:23:34.194Z,21.27
2022-08-05T10:26:15.064Z,22.63
2022-08-05T10:28:49.019Z,22.70
2022-08-05T10:32:55.378Z,22.94
2022-08-05T10:34:14.357Z,21.88
2022-08-05T10:36:47.672Z,19.55
2022-08-05T10:39:25.072Z,18.09
2022-08-05T10:42:14.786Z,16.86
2022-08-05T10:44:50.698Z,17.23
2022-08-05T10:47:26.725Z,16.58
2022-08-05T10:50:33.260Z,15.80
2022-08-05T10:52:58.536Z,16.61
2022-08-05T10:55:32.796Z,17.33
2022-08-05T10:58:23.402Z,17.53
2022-08-05T11:01:11.497Z,18.04
2022-08-05T11:04:07.485Z,17.98
2022-08-05T11:07:00.655Z,18.69
2022-08-05T11:09:46.384Z,18.26
2022-08-05T11:12:50.914Z,18.31
2022-08-05T11:16:01.217Z,18.34
2022-08-05T11:18:30.203Z,17.40
2022-08-05T11:21:11.839Z,16.39
2022-08-05T11:24:05.259Z,17.55
2022-08-05T11:26:43.454Z,18.07
2022-08-05T11:29:40.697Z,18.17
2022-08-05T11:32:33.744Z,17.85
2022-08-05T11:35:07.328Z,17.79
2022-08-05T11:38:28.839Z,17.84
2022-08-05T11:41:35.061Z,18.53
2022-08-05T11:44:05.755Z,17.09
2022-08-05T11:46:58.188Z,16.16
2022-08-05T11:49:34.092Z,16.11
2022-08-05T11:52:11.741Z,15.15
2022-08-05T11:54:48.431Z,16.57
2022-08-05T11:58:08.579Z,17.48
2022-08-05T12:00:31.745Z,17.68
2022-08-05T12:03:29.556Z,17.30
2022-08-05T12:06:09.881Z,17.46
2022-08-05T12:08:50.571Z,16.98
2022-08-05T12:11:22.447Z,18.00
2022-08-05T12:14:03.899Z,18.65
2022-08-05T12:16:38.544Z,19.55
2022-08-05T12:20:26.352Z,20.24
2022-08-05T12:22:03.267Z,20.93
2022-08-05T12:24:49.632Z,20.81
2022-08-05T12:27:25.399Z,20.65
2022-08-05T12:30:03.537Z,21.78
2022-08-05T12:32:35.546Z,21.45
2022-08-05T12:35:12.066Z,20.10
2022-08-05T12:37:53.355Z,18.96
2022-08-05T12:40:32.079Z,20.21
2022-08-05T12:43:01.659Z,20.58
2022-08-05T12:45:36.963Z,21.09
2022-08-05T12:48:32.372Z,20.25
2022-08-05T12:52:10.972Z,20.02
2022-08-05T12:54:03.198Z,20.05
2022-08-05T12:56:42.546Z,20.40
2022-08-05T12:59:21.094Z,20.39
2022-08-05T13:02:09.814Z,22.17
2022-08-05T13:04:52.439Z,23.20
2022-08-05T13:07:57.773Z,21.86
2022-08-05T13:10:19.698Z,22.29
2022-08-05T13:12:58.516Z,22.69
2022-08-05T13:15:42.076Z,23.15
2022-08-05T13:18:21.498Z,24.11
2022-08-05T13:20:53.181Z,24.80
2022-08-05T13:23:24.336Z,25.04
2022-08-05T13:25:59.310Z,25.69
2022-08-05T13:28:32.113Z,24.70
2022-08-05T13:31:03.342Z,24.68
2022-08-05T13:34:22.157Z,24.60
2022-08-05T13:36:34.823Z,25.35
2022-08-05T13:39:08.629Z,24.92
2022-08-05T13:41:54.922Z,24.14
2022-08-05T13:44:28.024Z,23.78
2022-08-05T13:47:04.759Z,23.71
2022-08-05T13:49:45.158Z,23.53
2022-08-05T13:52:18.029Z,23.68
2022-08-05T13:54:53.561Z,24.06
2022-08-05T13:57:24.383Z,23.91
2022-08-05T13:59:59.470Z,23.56
2022-08-05T14:02:38.981Z,24.04
2022-08-05T14:05:11.483Z,23.97
2022-08-05T14:07:59.497Z,24.01
2022-08-05T14:10:37.476Z,24.40
2022-08-05T14:13:08.009Z,24.08
2022-08-05T14:16:08.274Z,23.83
2022-08-05T14:18:29.420Z,25.03
2022-08-05T14:21:00.140Z,25.57
2022-08-05T14:23:36.463Z,25.97
2022-08-05T14:26:06.687Z,25.67
2022-08-05T14:28:36.818Z,25.93
2022-08-05T14:32:03.519Z,26.02
2022-08-05T14:34:13.766Z,26.91
2022-08-05T14:36:43.494Z,27.23
2022-08-05T14:39:23.479Z,27.49
2022-08-05T14:42:19.695Z,26.69
2022-08-05T14:44:46.076Z,26.15
2022-08-05T14:47:17.441Z,25.71
2022-08-05T14:50:17.750Z,26.02
2022-08-05T14:52:53.571Z,26.33
2022-08-05T14:55:39.580Z,26.42
2022-08-05T14:58:13.894Z,25.92
2022-08-05T15:00:59.346Z,25.86
2022-08-05T15:03:33.738Z,25.64
2022-08-05T15:06:15.534Z,26.18
2022-08-05T15:09:01.279Z,26.46
2022-08-05T15:11:51.309Z,26.63
2022-08-05T15:14:35.638Z,27.13
2022-08-05T15:17:44.582Z,26.83
2022-08-05T15:20:07.572Z,26.55
2022-08-05T15:22:41.491Z,26.98
2022-08-05T15:25:15.345Z,27.13
2022-08-05T15:27:54.811Z,26.73
2022-08-05T15:30:24.069Z,26.00
2022-08-05T15:32:55.734Z,26.50
2022-08-05T15:35:27.953Z,26.69
2022-08-05T15:38:16.378Z,26.26
2022-08-05T15:41:21.019Z,26.74
2022-08-05T15:43:47.026Z,27.06
2022-08-05T15:46:20.266Z,26.56
2022-08-05T15:49:10.312Z,27.60
2022-08-05T15:52:13.920Z,26.48
2022-08-05T15:54:34.978Z,26.71
2022-08-05T15:57:08.028Z,26.92
2022-08-05T15:59:38.097Z,27.20
2022-08-05T16:02:14.831Z,27.36
2022-08-05T16:04:53.257Z,27.24
2022-08-05T16:07:24.029Z,27.06
2022-08-05T16:09:54.429Z,27.48
2022-08-05T16:12:24.217Z,27.33
2022-08-05T16:14:53.937Z,27.77
2022-08-05T16:17:23.271Z,27.60
2022-08-05T16:20:11.260Z,28.12
2022-08-05T16:22:43.445Z,28.02
2022-08-05T16:25:13.438Z,27.66
2022-08-05T16:28:00.453Z,27.75
2022-08-05T16:30:36.069Z,27.74
2022-08-05T16:33:05.784Z,27.70
2022-08-05T16:35:42.163Z,28.39
2022-08-05T16:38:24.421Z,28.83
2022-08-05T16:41:00.421Z,28.61
2022-08-05T16:43:31.856Z,28.99
2022-08-05T16:46:23.961Z,29.79
2022-08-05T16:48:53.319Z,28.01
2022-08-05T16:51:24.775Z,29.67
2022-08-05T16:54:04.365Z,30.66
2022-08-05T16:56:41.538Z,29.96
2022-08-05T16:59:15.622Z,30.50
2022-08-05T17:01:54.623Z,31.15
2022-08-05T17:04:28.370Z,31.86
2022-08-05T17:07:03.247Z,32.37
2022-08-05T17:09:56.027Z,31.77
2022-08-05T17:12:51.551Z,31.80
2022-08-05T17:15:19.296Z,32.08
2022-08-05T17:17:54.504Z,31.80
2022-08-05T17:20:25.107Z,32.25
2022-08-05T17:22:57.633Z,32.51
2022-08-05T17:25:39.629Z,33.19
2022-08-05T17:28:10.558Z,33.94
2022-08-05T17:30:51.678Z,32.40
2022-08-05T17:33:23.131Z,32.56
2022-08-05T17:36:07.486Z,33.33
2022-08-05T17:38:40.220Z,33.15
2022-08-05T17:41:23.018Z,33.68
2022-08-05T17:44:06.722Z,33.64
2022-08-05T17:46:40.853Z,33.22
2022-08-05T17:49:12.768Z,33.23
2022-08-05T17:51:42.087Z,33.06
2022-08-05T17:54:23.193Z,32.82
2022-08-05T17:56:55.437Z,32.49
2022-08-05T17:59:27.647Z,32.46
2022-08-05T18:01:59.360Z,32.48
2022-08-05T18:04:30.068Z,32.74
2022-08-05T18:07:01.382Z,32.68
2022-08-05T18:09:59.616Z,32.89
2022-08-05T18:12:24.377Z,32.62
2022-08-05T18:14:54.088Z,32.40
2022-08-05T18:17:58.812Z,32.47
2022-08-05T18:20:15.132Z,32.84
2022-08-05T18:22:54.657Z,33.00
2022-08-05T18:25:32.900Z,34.53
2022-08-05T18:28:06.106Z,33.58
2022-08-05T18:30:36.158Z,34.29
2022-08-05T18:33:08.733Z,34.06
2022-08-05T18:36:01.006Z,34.08
2022-08-05T18:38:35.942Z,33.83
2022-08-05T18:41:57.139Z,34.01
2022-08-05T18:43:56.331Z,33.52
2022-08-05T18:46:29.084Z,33.49
2022-08-05T18:49:18.525Z,33.50
2022-08-05T18:52:08.641Z,33.01
2022-08-05T18:54:41.374Z,32.83
2022-08-05T18:57:17.536Z,33.76
2022-08-05T19:00:03.010Z,34.27
2022-08-05T19:02:35.524Z,33.07
2022-08-05T19:06:05.456Z,33.65
2022-08-05T19:07:58.073Z,32.64
2022-08-05T19:10:28.678Z,32.90
2022-08-05T19:12:58.591Z,33.16
2022-08-05T19:15:59.165Z,33.17
2022-08-05T19:18:21.847Z,32.95
2022-08-05T19:20:52.927Z,33.79
2022-08-05T19:24:05.543Z,33.42
2022-08-05T19:26:12.015Z,33.38
2022-08-05T19:28:44.162Z,34.42
2022-08-05T19:31:19.541Z,34.62
2022-08-05T19:33:56.583Z,34.94
2022-08-05T19:36:29.552Z,33.88
2022-08-05T19:39:01.522Z,34.19
2022-08-05T19:41:34.633Z,34.43
2022-08-05T19:44:21.483Z,34.07
2022-08-05T19:46:51.920Z,33.68
2022-08-05T19:49:21.170Z,34.08
2022-08-05T19:52:05.390Z,34.97
2022-08-05T19:54:37.886Z,34.10
2022-08-05T19:57:10.031Z,34.32
2022-08-05T20:00:01.697Z,34.24
2022-08-05T20:02:34.004Z,34.47
2022-08-05T20:05:05.244Z,34.38
2022-08-05T20:07:47.964Z,34.81
2022-08-05T20:10:22.400Z,34.38
2022-08-05T20:12:55.254Z,34.67
2022-08-05T20:15:52.094Z,34.73
2022-08-05T20:18:33.858Z,34.42
2022-08-05T20:21:07.418Z,34.38
2022-08-05T20:23:39.780Z,34.35
2022-08-05T20:26:18.894Z,34.55
2022-08-05T20:28:51.031Z,34.27
2022-08-05T20:31:37.273Z,34.49
2022-08-05T20:34:14.360Z,34.45
2022-08-05T20:36:45.522Z,34.72
2022-08-05T20:39:16.671Z,34.14
2022-08-05T20:41:47.991Z,34.58
2022-08-05T20:44:29.365Z,34.67
2022-08-05T20:47:01.284Z,34.87
2022-08-05T20:49:37.862Z,34.13
2022-08-05T20:52:12.366Z,34.79
2022-08-05T20:54:55.241Z,35.05
2022-08-05T20:57:44.000Z,34.99
2022-08-05T21:00:40.941Z,35.16
2022-08-05T21:03:08.912Z,34.95
2022-08-05T21:05:54.762Z,35.12
2022-08-05T21:08:26.930Z,35.26
2022-08-05T21:11:12.930Z,35.02
2022-08-05T21:14:02.102Z,34.72
2022-08-05T21:16:32.345Z,35.20
2022-08-05T21:19:04.601Z,35.32
2022-08-05T21:21:39.429Z,35.25
2022-08-05T21:24:15.453Z,35.46
2022-08-05T21:26:57.838Z,35.45
2022-08-05T21:29:31.322Z,35.62
2022-08-05T21:32:03.363Z,35.57
2022-08-05T21:34:35.771Z,35.58
2022-08-05T21:37:09.104Z,35.83
2022-08-05T21:39:38.460Z,35.44
2022-08-05T21:42:30.994Z,35.63
2022-08-05T21:44:59.673Z,35.96
2022-08-05T21:47:54.823Z,35.96
2022-08-05T21:50:22.178Z,36.45
2022-08-05T21:52:53.133Z,36.73
2022-08-05T21:56:01.631Z,36.72
2022-08-05T21:58:11.899Z,37.12
2022-08-05T22:00:41.358Z,37.05
2022-08-05T22:03:48.260Z,36.99
2022-08-05T22:06:09.505Z,37.53
2022-08-05T22:08:42.805Z,37.60
2022-08-05T22:11:15.689Z,37.50
2022-08-05T22:14:19.486Z,37.32
2022-08-05T22:16:42.137Z,37.39
2022-08-05T22:20:02.125Z,37.23
2022-08-05T22:22:11.403Z,37.63
2022-08-05T22:25:00.658Z,37.34
2022-08-05T22:28:08.771Z,37.74
2022-08-05T22:30:35.907Z,37.81
2022-08-05T22:33:15.912Z,37.85
2022-08-05T22:35:49.286Z,37.84
2022-08-05T22:38:19.698Z,38.08
2022-08-05T22:40:54.849Z,37.87
2022-08-05T22:43:36.555Z,37.65
2022-08-05T22:46:13.574Z,37.84
2022-08-05T22:48:52.389Z,38.15
2022-08-05T22:51:23.269Z,38.19
2022-08-05T22:54:10.941Z,38.16
2022-08-05T22:56:42.682Z,38.11
2022-08-05T22:59:45.217Z,38.46
2022-08-05T23:02:06.038Z,38.43
2022-08-05T23:04:37.427Z,38.35
2022-08-05T23:07:07.362Z,38.41
2022-08-05T23:09:53.418Z,38.47
2022-08-05T23:12:29.079Z,38.54
2022-08-05T23:15:03.330Z,38.76
2022-08-05T23:17:37.936Z,38.89
2022-08-05T23:20:24.382Z,38.63
2022-08-05T23:22:55.792Z,39.10
2022-08-05T23:25:52.395Z,39.22
2022-08-05T23:28:17.212Z,38.79
2022-08-05T23:30:53.768Z,39.33
2022-08-05T23:34:03.078Z,39.61
2022-08-05T23:36:14.046Z,39.78
2022-08-05T23:38:43.832Z,39.93
2022-08-05T23:41:13.789Z,39.63
2022-08-05T23:44:05.520Z,39.94
2022-08-05T23:46:34.753Z,40.33
2022-08-05T23:49:16.710Z,40.25
2022-08-05T23:52:05.774Z,40.38
2022-08-05T23:54:38.148Z,40.85
2022-08-05T23:57:08.610Z,41.05
